sensor_id;sensor_type;location;lat;lon;timestamp;P1;durP1;ratioP1;P2;durP2;ratioP2
9222;SDS011;7557;51.698;3.942;2023-03-01T00:00:19;14.77;;;13.37;;
9222;SDS011;7557;51.698;3.942;2023-03-01T00:02:46;15.10;;;13.57;;
9222;SDS011;7557;51.698;3.942;2023-03-01T00:05:13;15.47;;;13.87;;
9222;SDS011;7557;51.698;3.942;2023-03-01T00:07:41;16.20;;;13.47;;
9222;SDS011;7557;51.698;3.942;2023-03-01T00:10:10;16.10;;;14.40;;
9222;SDS011;7557;51.698;3.942;2023-03-01T00:12:37;17.47;;;15.67;;
9222;SDS011;7557;51.698;3.942;2023-03-01T00:15:05;16.47;;;13.93;;
9222;SDS011;7557;51.698;3.942;2023-03-01T00:17:33;16.80;;;15.00;;
9222;SDS011;7557;51.698;3.942;2023-03-01T00:20:00;19.20;;;15.53;;
9222;SDS011;7557;51.698;3.942;2023-03-01T00:22:27;18.10;;;15.23;;
9222;SDS011;7557;51.698;3.942;2023-03-01T00:24:54;17.13;;;14.77;;
9222;SDS011;7557;51.698;3.942;2023-03-01T00:27:23;17.33;;;15.10;;
9222;SDS011;7557;51.698;3.942;2023-03-01T00:29:50;18.07;;;16.13;;
9222;SDS011;7557;51.698;3.942;2023-03-01T00:32:18;18.93;;;16.30;;
9222;SDS011;7557;51.698;3.942;2023-03-01T00:34:46;18.47;;;14.43;;
9222;SDS011;7557;51.698;3.942;2023-03-01T00:37:19;19.73;;;16.83;;
9222;SDS011;7557;51.698;3.942;2023-03-01T00:39:46;19.23;;;16.17;;
9222;SDS011;7557;51.698;3.942;2023-03-01T00:42:13;18.57;;;15.13;;
9222;SDS011;7557;51.698;3.942;2023-03-01T00:44:42;19.50;;;16.00;;
9222;SDS011;7557;51.698;3.942;2023-03-01T00:47:09;20.33;;;16.10;;
9222;SDS011;7557;51.698;3.942;2023-03-01T00:52:59;19.17;;;15.57;;
9222;SDS011;7557;51.698;3.942;2023-03-01T00:55:26;16.77;;;14.97;;
9222;SDS011;7557;51.698;3.942;2023-03-01T00:57:53;18.73;;;16.73;;
9222;SDS011;7557;51.698;3.942;2023-03-01T01:00:21;19.50;;;17.00;;
9222;SDS011;7557;51.698;3.942;2023-03-01T01:02:49;19.17;;;16.43;;
9222;SDS011;7557;51.698;3.942;2023-03-01T01:05:17;18.83;;;16.30;;
9222;SDS011;7557;51.698;3.942;2023-03-01T01:07:47;18.47;;;15.80;;
9222;SDS011;7557;51.698;3.942;2023-03-01T01:10:14;23.50;;;17.43;;
9222;SDS011;7557;51.698;3.942;2023-03-01T01:12:45;20.70;;;17.73;;
9222;SDS011;7557;51.698;3.942;2023-03-01T01:15:13;19.07;;;16.60;;
9222;SDS011;7557;51.698;3.942;2023-03-01T01:17:43;20.90;;;17.33;;
9222;SDS011;7557;51.698;3.942;2023-03-01T01:20:10;22.60;;;17.03;;
9222;SDS011;7557;51.698;3.942;2023-03-01T01:22:38;21.50;;;17.00;;
9222;SDS011;7557;51.698;3.942;2023-03-01T01:25:05;19.87;;;16.27;;
9222;SDS011;7557;51.698;3.942;2023-03-01T01:27:32;22.17;;;17.20;;
9222;SDS011;7557;51.698;3.942;2023-03-01T01:30:00;19.10;;;16.43;;
9222;SDS011;7557;51.698;3.942;2023-03-01T01:32:27;21.57;;;16.73;;
9222;SDS011;7557;51.698;3.942;2023-03-01T01:34:55;18.87;;;16.17;;
9222;SDS011;7557;51.698;3.942;2023-03-01T01:37:22;20.17;;;17.67;;
9222;SDS011;7557;51.698;3.942;2023-03-01T01:39:56;20.40;;;17.00;;
9222;SDS011;7557;51.698;3.942;2023-03-01T01:42:23;19.40;;;17.00;;
9222;SDS011;7557;51.698;3.942;2023-03-01T01:47:50;22.70;;;18.73;;
9222;SDS011;7557;51.698;3.942;2023-03-01T01:50:20;26.50;;;18.17;;
9222;SDS011;7557;51.698;3.942;2023-03-01T01:52:48;22.43;;;17.47;;
9222;SDS011;7557;51.698;3.942;2023-03-01T01:55:18;22.43;;;17.80;;
9222;SDS011;7557;51.698;3.942;2023-03-01T01:57:47;21.07;;;16.80;;
9222;SDS011;7557;51.698;3.942;2023-03-01T02:00:18;23.80;;;17.80;;
9222;SDS011;7557;51.698;3.942;2023-03-01T02:02:48;23.93;;;18.77;;
9222;SDS011;7557;51.698;3.942;2023-03-01T02:05:22;25.10;;;17.37;;
9222;SDS011;7557;51.698;3.942;2023-03-01T02:07:52;22.23;;;17.77;;
9222;SDS011;7557;51.698;3.942;2023-03-01T02:10:20;24.60;;;19.03;;
9222;SDS011;7557;51.698;3.942;2023-03-01T02:12:49;21.87;;;18.20;;
9222;SDS011;7557;51.698;3.942;2023-03-01T02:15:17;23.87;;;19.80;;
9222;SDS011;7557;51.698;3.942;2023-03-01T02:17:44;23.70;;;19.50;;
9222;SDS011;7557;51.698;3.942;2023-03-01T02:20:18;24.57;;;19.27;;
9222;SDS011;7557;51.698;3.942;2023-03-01T02:22:53;21.73;;;18.30;;
9222;SDS011;7557;51.698;3.942;2023-03-01T02:25:25;27.33;;;19.97;;
9222;SDS011;7557;51.698;3.942;2023-03-01T02:28:02;26.63;;;19.43;;
9222;SDS011;7557;51.698;3.942;2023-03-01T02:30:34;27.30;;;21.00;;
9222;SDS011;7557;51.698;3.942;2023-03-01T02:33:02;27.17;;;20.37;;
9222;SDS011;7557;51.698;3.942;2023-03-01T02:35:30;28.53;;;20.73;;
9222;SDS011;7557;51.698;3.942;2023-03-01T02:37:59;29.50;;;19.97;;
9222;SDS011;7557;51.698;3.942;2023-03-01T02:40:28;26.77;;;19.43;;
9222;SDS011;7557;51.698;3.942;2023-03-01T02:42:57;25.70;;;20.10;;
9222;SDS011;7557;51.698;3.942;2023-03-01T02:45:25;28.77;;;20.90;;
9222;SDS011;7557;51.698;3.942;2023-03-01T02:47:55;28.37;;;20.73;;
9222;SDS011;7557;51.698;3.942;2023-03-01T02:50:26;27.27;;;19.93;;
9222;SDS011;7557;51.698;3.942;2023-03-01T02:53:12;24.20;;;19.17;;
9222;SDS011;7557;51.698;3.942;2023-03-01T02:55:45;27.27;;;19.93;;
9222;SDS011;7557;51.698;3.942;2023-03-01T02:58:13;25.80;;;19.63;;
9222;SDS011;7557;51.698;3.942;2023-03-01T03:00:41;25.97;;;18.80;;
9222;SDS011;7557;51.698;3.942;2023-03-01T03:03:11;29.70;;;20.00;;
9222;SDS011;7557;51.698;3.942;2023-03-01T03:05:40;26.67;;;19.10;;
9222;SDS011;7557;51.698;3.942;2023-03-01T03:08:07;28.33;;;20.30;;
9222;SDS011;7557;51.698;3.942;2023-03-01T03:10:35;30.40;;;20.10;;
9222;SDS011;7557;51.698;3.942;2023-03-01T03:13:05;29.07;;;19.17;;
9222;SDS011;7557;51.698;3.942;2023-03-01T03:15:33;21.40;;;17.53;;
9222;SDS011;7557;51.698;3.942;2023-03-01T03:18:02;21.90;;;17.00;;
9222;SDS011;7557;51.698;3.942;2023-03-01T03:20:32;23.97;;;18.17;;
9222;SDS011;7557;51.698;3.942;2023-03-01T03:23:00;24.03;;;17.97;;
9222;SDS011;7557;51.698;3.942;2023-03-01T03:25:28;27.90;;;19.33;;
9222;SDS011;7557;51.698;3.942;2023-03-01T03:27:56;26.07;;;19.10;;
9222;SDS011;7557;51.698;3.942;2023-03-01T03:30:24;32.23;;;21.73;;
9222;SDS011;7557;51.698;3.942;2023-03-01T03:32:53;36.33;;;25.27;;
9222;SDS011;7557;51.698;3.942;2023-03-01T03:35:21;47.00;;;30.20;;
9222;SDS011;7557;51.698;3.942;2023-03-01T03:37:51;47.50;;;33.43;;
9222;SDS011;7557;51.698;3.942;2023-03-01T03:40:28;68.30;;;43.57;;
9222;SDS011;7557;51.698;3.942;2023-03-01T03:42:56;75.83;;;51.00;;
9222;SDS011;7557;51.698;3.942;2023-03-01T03:45:23;86.13;;;55.57;;
9222;SDS011;7557;51.698;3.942;2023-03-01T03:47:51;98.67;;;60.67;;
9222;SDS011;7557;51.698;3.942;2023-03-01T03:50:18;102.73;;;63.67;;
9222;SDS011;7557;51.698;3.942;2023-03-01T03:52:45;94.00;;;61.53;;
9222;SDS011;7557;51.698;3.942;2023-03-01T03:55:14;98.93;;;63.20;;
9222;SDS011;7557;51.698;3.942;2023-03-01T03:57:44;100.97;;;63.23;;
9222;SDS011;7557;51.698;3.942;2023-03-01T04:00:16;92.10;;;58.43;;
9222;SDS011;7557;51.698;3.942;2023-03-01T04:02:45;83.87;;;55.80;;
9222;SDS011;7557;51.698;3.942;2023-03-01T04:05:14;89.03;;;56.00;;
9222;SDS011;7557;51.698;3.942;2023-03-01T04:07:43;88.13;;;52.77;;
9222;SDS011;7557;51.698;3.942;2023-03-01T04:10:12;74.00;;;49.30;;
9222;SDS011;7557;51.698;3.942;2023-03-01T04:12:41;79.33;;;48.80;;
9222;SDS011;7557;51.698;3.942;2023-03-01T04:15:10;88.27;;;52.13;;
9222;SDS011;7557;51.698;3.942;2023-03-01T04:17:40;79.27;;;50.67;;
9222;SDS011;7557;51.698;3.942;2023-03-01T04:20:09;86.20;;;51.93;;
9222;SDS011;7557;51.698;3.942;2023-03-01T04:22:37;88.43;;;51.20;;
9222;SDS011;7557;51.698;3.942;2023-03-01T04:25:05;79.97;;;52.60;;
9222;SDS011;7557;51.698;3.942;2023-03-01T04:27:35;81.00;;;51.73;;
9222;SDS011;7557;51.698;3.942;2023-03-01T04:30:03;84.47;;;53.00;;
9222;SDS011;7557;51.698;3.942;2023-03-01T04:32:30;79.10;;;51.87;;
9222;SDS011;7557;51.698;3.942;2023-03-01T04:34:57;79.67;;;52.17;;
9222;SDS011;7557;51.698;3.942;2023-03-01T04:37:25;87.17;;;55.63;;
9222;SDS011;7557;51.698;3.942;2023-03-01T04:39:52;86.57;;;55.20;;
9222;SDS011;7557;51.698;3.942;2023-03-01T04:42:19;95.77;;;64.13;;
9222;SDS011;7557;51.698;3.942;2023-03-01T04:44:48;102.43;;;67.73;;
9222;SDS011;7557;51.698;3.942;2023-03-01T04:47:16;112.10;;;70.00;;
9222;SDS011;7557;51.698;3.942;2023-03-01T04:49:43;103.40;;;66.10;;
9222;SDS011;7557;51.698;3.942;2023-03-01T04:52:10;103.70;;;66.70;;
9222;SDS011;7557;51.698;3.942;2023-03-01T04:54:37;102.37;;;65.13;;
9222;SDS011;7557;51.698;3.942;2023-03-01T04:57:04;100.07;;;65.67;;
9222;SDS011;7557;51.698;3.942;2023-03-01T04:59:31;101.10;;;67.10;;
9222;SDS011;7557;51.698;3.942;2023-03-01T05:02:00;97.90;;;62.27;;
9222;SDS011;7557;51.698;3.942;2023-03-01T05:04:27;93.43;;;59.00;;
9222;SDS011;7557;51.698;3.942;2023-03-01T05:06:54;97.30;;;62.83;;
9222;SDS011;7557;51.698;3.942;2023-03-01T05:09:23;91.20;;;61.33;;
9222;SDS011;7557;51.698;3.942;2023-03-01T05:11:50;98.30;;;61.50;;
9222;SDS011;7557;51.698;3.942;2023-03-01T05:14:17;92.03;;;60.10;;
9222;SDS011;7557;51.698;3.942;2023-03-01T05:16:44;92.23;;;60.83;;
9222;SDS011;7557;51.698;3.942;2023-03-01T05:19:13;85.77;;;57.03;;
9222;SDS011;7557;51.698;3.942;2023-03-01T05:21:41;93.63;;;59.57;;
9222;SDS011;7557;51.698;3.942;2023-03-01T05:24:22;85.33;;;55.83;;
9222;SDS011;7557;51.698;3.942;2023-03-01T05:26:49;82.30;;;54.23;;
9222;SDS011;7557;51.698;3.942;2023-03-01T05:29:18;82.33;;;52.57;;
9222;SDS011;7557;51.698;3.942;2023-03-01T05:31:50;72.33;;;48.97;;
9222;SDS011;7557;51.698;3.942;2023-03-01T05:34:22;73.53;;;48.93;;
9222;SDS011;7557;51.698;3.942;2023-03-01T05:36:50;67.50;;;44.70;;
9222;SDS011;7557;51.698;3.942;2023-03-01T05:39:18;65.43;;;43.37;;
9222;SDS011;7557;51.698;3.942;2023-03-01T05:41:47;60.90;;;42.07;;
9222;SDS011;7557;51.698;3.942;2023-03-01T05:44:14;54.33;;;38.13;;
9222;SDS011;7557;51.698;3.942;2023-03-01T05:46:41;52.50;;;37.17;;
9222;SDS011;7557;51.698;3.942;2023-03-01T05:49:09;52.63;;;35.13;;
9222;SDS011;7557;51.698;3.942;2023-03-01T05:51:39;47.60;;;33.87;;
9222;SDS011;7557;51.698;3.942;2023-03-01T05:54:06;46.80;;;33.63;;
9222;SDS011;7557;51.698;3.942;2023-03-01T05:56:34;44.47;;;30.50;;
9222;SDS011;7557;51.698;3.942;2023-03-01T05:59:01;40.97;;;31.13;;
9222;SDS011;7557;51.698;3.942;2023-03-01T06:01:30;41.97;;;28.63;;
9222;SDS011;7557;51.698;3.942;2023-03-01T06:03:57;38.37;;;27.20;;
9222;SDS011;7557;51.698;3.942;2023-03-01T06:06:24;36.83;;;26.67;;
9222;SDS011;7557;51.698;3.942;2023-03-01T06:08:52;35.70;;;26.33;;
9222;SDS011;7557;51.698;3.942;2023-03-01T06:11:20;35.33;;;25.77;;
9222;SDS011;7557;51.698;3.942;2023-03-01T06:13:47;35.90;;;25.83;;
9222;SDS011;7557;51.698;3.942;2023-03-01T06:16:14;34.63;;;23.90;;
9222;SDS011;7557;51.698;3.942;2023-03-01T06:18:41;32.00;;;23.10;;
9222;SDS011;7557;51.698;3.942;2023-03-01T06:21:09;32.87;;;24.33;;
9222;SDS011;7557;51.698;3.942;2023-03-01T06:23:36;28.03;;;21.97;;
9222;SDS011;7557;51.698;3.942;2023-03-01T06:26:06;29.27;;;21.20;;
9222;SDS011;7557;51.698;3.942;2023-03-01T06:28:34;27.07;;;21.07;;
9222;SDS011;7557;51.698;3.942;2023-03-01T06:31:01;26.93;;;21.27;;
9222;SDS011;7557;51.698;3.942;2023-03-01T06:33:28;23.33;;;18.43;;
9222;SDS011;7557;51.698;3.942;2023-03-01T06:35:55;25.80;;;19.53;;
9222;SDS011;7557;51.698;3.942;2023-03-01T06:38:23;22.73;;;18.57;;
9222;SDS011;7557;51.698;3.942;2023-03-01T06:40:53;24.03;;;18.80;;
9222;SDS011;7557;51.698;3.942;2023-03-01T06:43:23;23.23;;;18.20;;
9222;SDS011;7557;51.698;3.942;2023-03-01T06:45:50;24.03;;;18.73;;
9222;SDS011;7557;51.698;3.942;2023-03-01T06:48:17;22.83;;;18.13;;
9222;SDS011;7557;51.698;3.942;2023-03-01T06:50:44;21.87;;;17.73;;
9222;SDS011;7557;51.698;3.942;2023-03-01T06:53:11;19.73;;;17.47;;
9222;SDS011;7557;51.698;3.942;2023-03-01T06:55:38;25.47;;;18.17;;
9222;SDS011;7557;51.698;3.942;2023-03-01T06:58:05;19.83;;;15.70;;
9222;SDS011;7557;51.698;3.942;2023-03-01T07:00:34;19.60;;;15.93;;
9222;SDS011;7557;51.698;3.942;2023-03-01T07:03:01;20.07;;;15.97;;
9222;SDS011;7557;51.698;3.942;2023-03-01T07:05:28;22.93;;;15.73;;
9222;SDS011;7557;51.698;3.942;2023-03-01T07:07:56;18.60;;;15.87;;
9222;SDS011;7557;51.698;3.942;2023-03-01T07:10:23;20.23;;;15.23;;
9222;SDS011;7557;51.698;3.942;2023-03-01T07:12:50;20.20;;;16.17;;
9222;SDS011;7557;51.698;3.942;2023-03-01T07:15:21;20.07;;;15.93;;
9222;SDS011;7557;51.698;3.942;2023-03-01T07:17:49;20.40;;;15.40;;
9222;SDS011;7557;51.698;3.942;2023-03-01T07:20:17;17.13;;;14.10;;
9222;SDS011;7557;51.698;3.942;2023-03-01T07:22:44;19.23;;;15.13;;
9222;SDS011;7557;51.698;3.942;2023-03-01T07:25:11;19.53;;;14.97;;
9222;SDS011;7557;51.698;3.942;2023-03-01T07:27:38;19.40;;;16.20;;
9222;SDS011;7557;51.698;3.942;2023-03-01T07:30:06;21.30;;;15.93;;
9222;SDS011;7557;51.698;3.942;2023-03-01T07:32:33;20.40;;;16.30;;
9222;SDS011;7557;51.698;3.942;2023-03-01T07:35:02;19.53;;;15.50;;
9222;SDS011;7557;51.698;3.942;2023-03-01T07:37:29;21.07;;;16.20;;
9222;SDS011;7557;51.698;3.942;2023-03-01T07:39:56;19.83;;;15.80;;
9222;SDS011;7557;51.698;3.942;2023-03-01T07:42:23;23.90;;;17.13;;
9222;SDS011;7557;51.698;3.942;2023-03-01T07:44:51;22.67;;;16.33;;
9222;SDS011;7557;51.698;3.942;2023-03-01T07:47:18;21.53;;;16.70;;
9222;SDS011;7557;51.698;3.942;2023-03-01T07:49:45;21.03;;;16.93;;
9222;SDS011;7557;51.698;3.942;2023-03-01T07:52:13;22.80;;;17.47;;
9222;SDS011;7557;51.698;3.942;2023-03-01T07:54:42;20.87;;;16.30;;
9222;SDS011;7557;51.698;3.942;2023-03-01T07:57:10;22.63;;;17.43;;
9222;SDS011;7557;51.698;3.942;2023-03-01T07:59:37;22.27;;;17.30;;
9222;SDS011;7557;51.698;3.942;2023-03-01T08:02:04;25.30;;;18.00;;
9222;SDS011;7557;51.698;3.942;2023-03-01T08:04:32;21.93;;;16.97;;
9222;SDS011;7557;51.698;3.942;2023-03-01T08:06:59;22.10;;;17.03;;
9222;SDS011;7557;51.698;3.942;2023-03-01T08:09:28;22.00;;;16.53;;
9222;SDS011;7557;51.698;3.942;2023-03-01T08:11:56;22.80;;;15.87;;
9222;SDS011;7557;51.698;3.942;2023-03-01T08:14:24;20.40;;;15.70;;
9222;SDS011;7557;51.698;3.942;2023-03-01T08:16:51;22.47;;;17.13;;
9222;SDS011;7557;51.698;3.942;2023-03-01T08:19:18;20.70;;;16.80;;
9222;SDS011;7557;51.698;3.942;2023-03-01T08:21:45;19.30;;;16.00;;
9222;SDS011;7557;51.698;3.942;2023-03-01T08:24:12;19.67;;;14.03;;
9222;SDS011;7557;51.698;3.942;2023-03-01T08:26:41;16.60;;;13.70;;
9222;SDS011;7557;51.698;3.942;2023-03-01T08:29:08;18.50;;;13.93;;
9222;SDS011;7557;51.698;3.942;2023-03-01T08:31:36;16.97;;;13.43;;
9222;SDS011;7557;51.698;3.942;2023-03-01T08:34:06;15.30;;;13.30;;
9222;SDS011;7557;51.698;3.942;2023-03-01T08:36:35;15.67;;;12.73;;
9222;SDS011;7557;51.698;3.942;2023-03-01T08:39:03;16.00;;;13.13;;
9222;SDS011;7557;51.698;3.942;2023-03-01T08:41:31;14.70;;;11.07;;
9222;SDS011;7557;51.698;3.942;2023-03-01T08:43:59;16.17;;;12.63;;
9222;SDS011;7557;51.698;3.942;2023-03-01T08:46:27;13.97;;;12.47;;
9222;SDS011;7557;51.698;3.942;2023-03-01T08:48:55;13.63;;;12.03;;
9222;SDS011;7557;51.698;3.942;2023-03-01T08:51:23;13.20;;;11.77;;
9222;SDS011;7557;51.698;3.942;2023-03-01T08:53:51;12.73;;;10.83;;
9222;SDS011;7557;51.698;3.942;2023-03-01T08:56:18;13.43;;;10.83;;
9222;SDS011;7557;51.698;3.942;2023-03-01T08:58:46;9.77;;;8.77;;
9222;SDS011;7557;51.698;3.942;2023-03-01T09:01:16;9.07;;;8.27;;
9222;SDS011;7557;51.698;3.942;2023-03-01T09:03:44;8.03;;;7.23;;
9222;SDS011;7557;51.698;3.942;2023-03-01T09:06:12;8.43;;;7.57;;
9222;SDS011;7557;51.698;3.942;2023-03-01T09:08:40;8.47;;;7.67;;
9222;SDS011;7557;51.698;3.942;2023-03-01T09:11:10;7.77;;;7.07;;
9222;SDS011;7557;51.698;3.942;2023-03-01T09:13:38;8.30;;;7.50;;
9222;SDS011;7557;51.698;3.942;2023-03-01T09:16:06;9.13;;;8.23;;
9222;SDS011;7557;51.698;3.942;2023-03-01T09:18:35;7.60;;;7.00;;
9222;SDS011;7557;51.698;3.942;2023-03-01T09:21:03;6.00;;;5.60;;
9222;SDS011;7557;51.698;3.942;2023-03-01T09:23:33;10.07;;;7.23;;
9222;SDS011;7557;51.698;3.942;2023-03-01T09:26:01;6.27;;;5.77;;
9222;SDS011;7557;51.698;3.942;2023-03-01T09:28:28;6.53;;;5.97;;
9222;SDS011;7557;51.698;3.942;2023-03-01T09:30:57;7.10;;;6.50;;
9222;SDS011;7557;51.698;3.942;2023-03-01T09:33:25;6.63;;;5.97;;
9222;SDS011;7557;51.698;3.942;2023-03-01T09:35:57;6.40;;;5.73;;
9222;SDS011;7557;51.698;3.942;2023-03-01T09:38:24;6.33;;;5.83;;
9222;SDS011;7557;51.698;3.942;2023-03-01T09:40:52;6.97;;;6.37;;
9222;SDS011;7557;51.698;3.942;2023-03-01T09:43:21;5.97;;;5.47;;
9222;SDS011;7557;51.698;3.942;2023-03-01T09:45:53;6.00;;;5.20;;
9222;SDS011;7557;51.698;3.942;2023-03-01T09:48:23;6.03;;;5.57;;
9222;SDS011;7557;51.698;3.942;2023-03-01T09:50:56;5.67;;;5.17;;
9222;SDS011;7557;51.698;3.942;2023-03-01T09:53:28;5.90;;;5.30;;
9222;SDS011;7557;51.698;3.942;2023-03-01T09:56:01;5.50;;;5.03;;
9222;SDS011;7557;51.698;3.942;2023-03-01T09:58:34;4.30;;;3.93;;
9222;SDS011;7557;51.698;3.942;2023-03-01T10:01:10;4.03;;;3.77;;
9222;SDS011;7557;51.698;3.942;2023-03-01T10:03:55;4.43;;;4.13;;
9222;SDS011;7557;51.698;3.942;2023-03-01T10:06:49;4.33;;;4.03;;
9222;SDS011;7557;51.698;3.942;2023-03-01T10:09:24;4.70;;;4.40;;
9222;SDS011;7557;51.698;3.942;2023-03-01T10:12:00;5.50;;;5.00;;
9222;SDS011;7557;51.698;3.942;2023-03-01T10:14:32;5.20;;;4.70;;
9222;SDS011;7557;51.698;3.942;2023-03-01T10:17:02;6.83;;;4.50;;
9222;SDS011;7557;51.698;3.942;2023-03-01T10:19:32;5.17;;;4.77;;
9222;SDS011;7557;51.698;3.942;2023-03-01T10:22:11;5.10;;;4.47;;
9222;SDS011;7557;51.698;3.942;2023-03-01T10:24:42;4.03;;;3.83;;
9222;SDS011;7557;51.698;3.942;2023-03-01T10:27:12;8.00;;;4.43;;
9222;SDS011;7557;51.698;3.942;2023-03-01T10:29:46;4.70;;;4.40;;
9222;SDS011;7557;51.698;3.942;2023-03-01T10:32:17;4.33;;;4.00;;
9222;SDS011;7557;51.698;3.942;2023-03-01T10:34:47;4.20;;;3.90;;
9222;SDS011;7557;51.698;3.942;2023-03-01T10:37:16;4.83;;;4.53;;
9222;SDS011;7557;51.698;3.942;2023-03-01T10:39:56;5.03;;;4.67;;
9222;SDS011;7557;51.698;3.942;2023-03-01T10:42:28;4.10;;;3.90;;
9222;SDS011;7557;51.698;3.942;2023-03-01T10:44:57;5.13;;;4.73;;
9222;SDS011;7557;51.698;3.942;2023-03-01T10:47:24;4.73;;;4.43;;
9222;SDS011;7557;51.698;3.942;2023-03-01T10:50:02;5.23;;;4.77;;
9222;SDS011;7557;51.698;3.942;2023-03-01T10:52:34;3.87;;;3.57;;
9222;SDS011;7557;51.698;3.942;2023-03-01T10:55:03;4.80;;;4.50;;
9222;SDS011;7557;51.698;3.942;2023-03-01T10:57:49;5.00;;;4.70;;
9222;SDS011;7557;51.698;3.942;2023-03-01T11:00:21;5.00;;;4.60;;
9222;SDS011;7557;51.698;3.942;2023-03-01T11:02:51;5.60;;;5.03;;
9222;SDS011;7557;51.698;3.942;2023-03-01T11:05:29;4.53;;;4.20;;
9222;SDS011;7557;51.698;3.942;2023-03-01T11:08:00;6.23;;;4.70;;
9222;SDS011;7557;51.698;3.942;2023-03-01T11:10:30;5.13;;;4.73;;
9222;SDS011;7557;51.698;3.942;2023-03-01T11:13:05;6.60;;;4.43;;
9222;SDS011;7557;51.698;3.942;2023-03-01T11:15:34;4.33;;;4.03;;
9222;SDS011;7557;51.698;3.942;2023-03-01T11:18:02;4.70;;;4.40;;
9222;SDS011;7557;51.698;3.942;2023-03-01T11:20:29;5.47;;;4.97;;
9222;SDS011;7557;51.698;3.942;2023-03-01T11:23:01;4.97;;;4.47;;
9222;SDS011;7557;51.698;3.942;2023-03-01T11:25:32;4.70;;;4.40;;
9222;SDS011;7557;51.698;3.942;2023-03-01T11:28:03;5.03;;;4.73;;
9222;SDS011;7557;51.698;3.942;2023-03-01T11:30:32;4.70;;;4.17;;
9222;SDS011;7557;51.698;3.942;2023-03-01T11:33:08;4.93;;;4.53;;
9222;SDS011;7557;51.698;3.942;2023-03-01T11:35:45;4.47;;;4.10;;
9222;SDS011;7557;51.698;3.942;2023-03-01T11:38:20;4.60;;;4.30;;
9222;SDS011;7557;51.698;3.942;2023-03-01T11:40:50;5.10;;;4.63;;
9222;SDS011;7557;51.698;3.942;2023-03-01T11:43:26;4.60;;;4.30;;
9222;SDS011;7557;51.698;3.942;2023-03-01T11:46:11;4.67;;;4.17;;
9222;SDS011;7557;51.698;3.942;2023-03-01T11:49:04;4.93;;;4.53;;
9222;SDS011;7557;51.698;3.942;2023-03-01T11:51:45;4.93;;;4.53;;
9222;SDS011;7557;51.698;3.942;2023-03-01T11:54:23;4.67;;;4.27;;
9222;SDS011;7557;51.698;3.942;2023-03-01T11:57:03;5.03;;;4.70;;
9222;SDS011;7557;51.698;3.942;2023-03-01T11:59:45;5.27;;;4.93;;
9222;SDS011;7557;51.698;3.942;2023-03-01T12:02:44;4.77;;;4.57;;
9222;SDS011;7557;51.698;3.942;2023-03-01T12:05:45;5.93;;;5.50;;
9222;SDS011;7557;51.698;3.942;2023-03-01T12:08:24;7.13;;;5.40;;
9222;SDS011;7557;51.698;3.942;2023-03-01T12:11:00;5.53;;;5.03;;
9222;SDS011;7557;51.698;3.942;2023-03-01T12:13:41;5.23;;;4.83;;
9222;SDS011;7557;51.698;3.942;2023-03-01T12:16:21;5.17;;;4.87;;
9222;SDS011;7557;51.698;3.942;2023-03-01T12:21:47;5.67;;;4.37;;
9222;SDS011;7557;51.698;3.942;2023-03-01T12:24:30;5.60;;;5.20;;
9222;SDS011;7557;51.698;3.942;2023-03-01T12:27:24;5.83;;;5.30;;
9222;SDS011;7557;51.698;3.942;2023-03-01T12:30:13;5.60;;;5.13;;
9222;SDS011;7557;51.698;3.942;2023-03-01T12:32:51;5.33;;;4.90;;
9222;SDS011;7557;51.698;3.942;2023-03-01T12:35:32;5.10;;;4.70;;
9222;SDS011;7557;51.698;3.942;2023-03-01T12:38:13;5.43;;;4.93;;
9222;SDS011;7557;51.698;3.942;2023-03-01T12:43:44;4.70;;;4.40;;
9222;SDS011;7557;51.698;3.942;2023-03-01T12:46:25;5.17;;;4.77;;
9222;SDS011;7557;51.698;3.942;2023-03-01T12:49:02;5.47;;;5.07;;
9222;SDS011;7557;51.698;3.942;2023-03-01T12:51:36;5.30;;;4.90;;
9222;SDS011;7557;51.698;3.942;2023-03-01T12:54:07;5.77;;;5.37;;
9222;SDS011;7557;51.698;3.942;2023-03-01T12:56:41;6.23;;;5.73;;
9222;SDS011;7557;51.698;3.942;2023-03-01T12:59:19;5.53;;;5.17;;
9222;SDS011;7557;51.698;3.942;2023-03-01T13:01:54;6.17;;;5.63;;
9222;SDS011;7557;51.698;3.942;2023-03-01T13:04:28;6.87;;;6.37;;
9222;SDS011;7557;51.698;3.942;2023-03-01T13:07:06;6.87;;;6.33;;
9222;SDS011;7557;51.698;3.942;2023-03-01T13:09:47;8.57;;;7.20;;
9222;SDS011;7557;51.698;3.942;2023-03-01T13:12:42;6.80;;;6.20;;
9222;SDS011;7557;51.698;3.942;2023-03-01T13:15:34;6.37;;;5.87;;
9222;SDS011;7557;51.698;3.942;2023-03-01T13:18:03;6.93;;;6.33;;
9222;SDS011;7557;51.698;3.942;2023-03-01T13:20:51;8.00;;;6.60;;
9222;SDS011;7557;51.698;3.942;2023-03-01T13:23:27;8.47;;;6.67;;
9222;SDS011;7557;51.698;3.942;2023-03-01T13:26:06;6.50;;;5.90;;
9222;SDS011;7557;51.698;3.942;2023-03-01T13:28:48;6.63;;;5.83;;
9222;SDS011;7557;51.698;3.942;2023-03-01T13:34:46;7.40;;;6.80;;
9222;SDS011;7557;51.698;3.942;2023-03-01T13:37:21;7.33;;;6.73;;
9222;SDS011;7557;51.698;3.942;2023-03-01T13:39:57;7.87;;;7.20;;
9222;SDS011;7557;51.698;3.942;2023-03-01T13:42:34;9.83;;;7.87;;
9222;SDS011;7557;51.698;3.942;2023-03-01T13:47:53;8.27;;;7.63;;
9222;SDS011;7557;51.698;3.942;2023-03-01T13:50:25;7.17;;;6.57;;
9222;SDS011;7557;51.698;3.942;2023-03-01T13:52:55;8.10;;;7.40;;
9222;SDS011;7557;51.698;3.942;2023-03-01T13:55:27;9.20;;;7.73;;
9222;SDS011;7557;51.698;3.942;2023-03-01T13:58:02;7.97;;;7.27;;
9222;SDS011;7557;51.698;3.942;2023-03-01T14:00:40;7.93;;;7.23;;
9222;SDS011;7557;51.698;3.942;2023-03-01T14:03:12;8.03;;;7.33;;
9222;SDS011;7557;51.698;3.942;2023-03-01T14:05:42;8.53;;;7.00;;
9222;SDS011;7557;51.698;3.942;2023-03-01T14:08:21;7.07;;;6.47;;
9222;SDS011;7557;51.698;3.942;2023-03-01T14:10:57;6.80;;;6.27;;
9222;SDS011;7557;51.698;3.942;2023-03-01T14:13:48;6.07;;;5.57;;
9222;SDS011;7557;51.698;3.942;2023-03-01T14:16:28;7.37;;;6.67;;
9222;SDS011;7557;51.698;3.942;2023-03-01T14:19:07;7.43;;;6.60;;
9222;SDS011;7557;51.698;3.942;2023-03-01T14:21:44;6.20;;;5.70;;
9222;SDS011;7557;51.698;3.942;2023-03-01T14:24:16;7.43;;;6.73;;
9222;SDS011;7557;51.698;3.942;2023-03-01T14:26:46;7.23;;;6.67;;
9222;SDS011;7557;51.698;3.942;2023-03-01T14:29:26;6.53;;;5.93;;
9222;SDS011;7557;51.698;3.942;2023-03-01T14:32:08;5.47;;;5.07;;
9222;SDS011;7557;51.698;3.942;2023-03-01T14:34:44;6.23;;;5.60;;
9222;SDS011;7557;51.698;3.942;2023-03-01T14:37:19;5.93;;;5.40;;
9222;SDS011;7557;51.698;3.942;2023-03-01T14:39:47;5.67;;;5.17;;
9222;SDS011;7557;51.698;3.942;2023-03-01T14:42:15;6.60;;;5.63;;
9222;SDS011;7557;51.698;3.942;2023-03-01T14:44:43;6.63;;;5.90;;
9222;SDS011;7557;51.698;3.942;2023-03-01T14:47:15;6.03;;;5.63;;
9222;SDS011;7557;51.698;3.942;2023-03-01T14:49:47;6.23;;;5.63;;
9222;SDS011;7557;51.698;3.942;2023-03-01T14:52:21;5.73;;;5.23;;
9222;SDS011;7557;51.698;3.942;2023-03-01T14:54:53;6.67;;;6.10;;
9222;SDS011;7557;51.698;3.942;2023-03-01T14:57:21;7.10;;;5.80;;
9222;SDS011;7557;51.698;3.942;2023-03-01T14:59:50;6.97;;;5.60;;
9222;SDS011;7557;51.698;3.942;2023-03-01T15:02:20;5.57;;;5.17;;
9222;SDS011;7557;51.698;3.942;2023-03-01T15:04:51;6.47;;;5.83;;
9222;SDS011;7557;51.698;3.942;2023-03-01T15:07:23;6.67;;;6.20;;
9222;SDS011;7557;51.698;3.942;2023-03-01T15:09:53;6.10;;;5.60;;
9222;SDS011;7557;51.698;3.942;2023-03-01T15:12:36;6.07;;;5.40;;
9222;SDS011;7557;51.698;3.942;2023-03-01T15:17:58;6.47;;;5.87;;
9222;SDS011;7557;51.698;3.942;2023-03-01T15:20:28;5.73;;;5.27;;
9222;SDS011;7557;51.698;3.942;2023-03-01T15:23:01;5.40;;;4.93;;
9222;SDS011;7557;51.698;3.942;2023-03-01T15:25:30;6.00;;;5.50;;
9222;SDS011;7557;51.698;3.942;2023-03-01T15:27:58;5.37;;;4.97;;
9222;SDS011;7557;51.698;3.942;2023-03-01T15:30:28;7.03;;;6.43;;
9222;SDS011;7557;51.698;3.942;2023-03-01T15:35:54;5.17;;;4.80;;
9222;SDS011;7557;51.698;3.942;2023-03-01T15:38:35;6.10;;;5.70;;
9222;SDS011;7557;51.698;3.942;2023-03-01T15:41:22;6.53;;;5.90;;
9222;SDS011;7557;51.698;3.942;2023-03-01T15:43:50;6.43;;;5.83;;